Time;durP1;ratioP1;P1;durP2;ratioP2;P2;SDS_P1;SDS_P2;PMS_P1;PMS_P2;Temp;Humidity;BMP_temperature;BMP_pressure;BME280_temperature;BME280_humidity;BME280_pressure;Samples;Min_cycle;Max_cycle;Signal;HPM_P1;HPM_P2
2022/06/29 00:00:37;;;;;;;;;11.67;11.67;;;;;23.86;58.78;101314.80;110489;1262;18113;-51
2022/06/29 00:03:09;;;;;;;;;11.00;11.00;;;;;23.86;58.80;101308.98;110491;1261;19454;-50
2022/06/29 00:05:37;;;;;;;;;12.00;12.00;;;;;23.88;58.80;101310.71;110420;1261;18869;-54
2022/06/29 00:08:04;;;;;;;;;11.00;10.00;;;;;23.88;58.59;101307.77;110386;1262;18186;-52
2022/06/29 00:10:31;;;;;;;;;11.00;11.00;;;;;23.93;58.50;101307.69;110518;1261;18845;-50
2022/06/29 00:12:59;;;;;;;;;10.00;10.00;;;;;23.92;58.56;101304.04;110449;1262;21738;-54
2022/06/29 00:15:26;;;;;;;;;11.00;10.67;;;;;23.85;58.68;101301.82;110480;1261;18277;-54
2022/06/29 00:17:53;;;;;;;;;10.00;10.00;;;;;23.82;58.70;101302.38;110475;1261;19296;-50
2022/06/29 00:20:21;;;;;;;;;13.00;10.67;;;;;23.80;58.79;101305.64;110451;1262;18735;-51
2022/06/29 00:22:49;;;;;;;;;10.67;10.00;;;;;23.77;58.70;101304.95;110486;1262;18288;-52
2022/06/29 00:25:16;;;;;;;;;10.00;10.00;;;;;23.75;58.85;101305.38;110509;1261;22650;-51
2022/06/29 00:27:43;;;;;;;;;12.00;11.50;;;;;23.71;58.85;101302.88;110481;1261;18695;-50
2022/06/29 00:30:10;;;;;;;;;11.67;11.33;;;;;23.72;58.84;101300.45;110474;1261;18323;-51
2022/06/29 00:32:38;;;;;;;;;12.00;12.00;;;;;23.70;58.85;101291.11;110479;1262;21824;-50
2022/06/29 00:35:05;;;;;;;;;14.00;11.00;;;;;23.69;58.94;101291.46;110476;1261;19542;-51
2022/06/29 00:37:32;;;;;;;;;13.33;11.67;;;;;23.67;59.10;101289.98;110506;1262;18212;-50
2022/06/29 00:40:00;;;;;;;;;12.00;12.00;;;;;23.65;59.00;101282.93;110470;1262;18740;-51
2022/06/29 00:42:27;;;;;;;;;11.67;11.00;;;;;23.65;58.98;101283.86;110468;1262;18780;-52
2022/06/29 00:44:54;;;;;;;;;14.67;12.67;;;;;23.64;59.08;101274.88;110472;1262;22139;-51
2022/06/29 00:47:22;;;;;;;;;11.67;11.00;;;;;23.61;59.12;101270.65;110471;1261;20481;-50
2022/06/29 00:49:49;;;;;;;;;12.67;12.00;;;;;23.61;59.05;101272.87;110525;1262;19015;-54
2022/06/29 00:52:17;;;;;;;;;28.50;25.50;;;;;23.60;59.04;101275.94;110506;1261;21072;-52
2022/06/29 00:54:44;;;;;;;;;29.00;25.00;;;;;23.59;59.12;101276.94;110467;1262;18996;-49
2022/06/29 00:57:11;;;;;;;;;26.00;23.00;;;;;23.53;59.31;101274.94;110442;1262;21665;-51
2022/06/29 00:59:39;;;;;;;;;20.67;19.00;;;;;23.53;59.26;101272.61;110417;1262;18228;-50
2022/06/29 01:02:06;;;;;;;;;20.67;18.67;;;;;23.54;59.15;101267.68;110481;1262;18725;-51
2022/06/29 01:04:33;;;;;;;;;21.00;18.00;;;;;23.55;59.21;101267.16;110518;1261;18776;-52
2022/06/29 01:07:00;;;;;;;;;17.33;15.67;;;;;23.53;59.10;101272.84;110490;1261;18287;-51
2022/06/29 01:09:27;;;;;;;;;12.00;12.00;;;;;23.49;59.34;101270.16;110468;1261;19239;-55
2022/06/29 01:11:55;;;;;;;;;13.33;13.33;;;;;23.48;59.28;101272.61;110434;1261;19571;-51
2022/06/29 01:14:22;;;;;;;;;15.33;12.00;;;;;23.46;59.31;101264.59;110459;1261;19103;-50
2022/06/29 01:16:49;;;;;;;;;14.67;14.00;;;;;23.49;59.28;101255.41;110509;1262;18664;-56
2022/06/29 01:19:16;;;;;;;;;15.33;14.33;;;;;23.48;59.20;101248.67;110531;1261;18737;-53
2022/06/29 01:21:44;;;;;;;;;15.00;14.33;;;;;23.47;59.42;101246.29;110508;1261;18877;-50
2022/06/29 01:24:11;;;;;;;;;12.00;12.00;;;;;23.46;59.39;101243.59;110486;1261;18641;-50
2022/06/29 01:26:38;;;;;;;;;16.00;15.00;;;;;23.47;59.22;101236.73;110468;1261;19452;-50
2022/06/29 01:29:05;;;;;;;;;12.25;11.75;;;;;23.48;59.20;101227.58;107495;1262;3858014;-51
2022/06/29 01:31:32;;;;;;;;;14.67;12.00;;;;;23.48;59.14;101231.41;110524;1262;18709;-50
2022/06/29 01:34:00;;;;;;;;;14.00;13.33;;;;;23.44;59.06;101230.58;110401;1261;20456;-53
2022/06/29 01:36:27;;;;;;;;;14.50;14.00;;;;;23.40;58.92;101225.34;110328;1261;18351;-56
2022/06/29 01:38:54;;;;;;;;;12.00;11.00;;;;;23.41;58.94;101224.30;110460;1261;20461;-49
2022/06/29 01:41:21;;;;;;;;;12.00;12.00;;;;;23.43;58.81;101228.30;110478;1261;18684;-51
2022/06/29 01:43:49;;;;;;;;;12.00;11.00;;;;;23.39;58.97;101224.35;110528;1262;21062;-55
2022/06/29 01:46:16;;;;;;;;;13.00;12.00;;;;;23.38;58.87;101225.08;110487;1261;18967;-52
2022/06/29 01:48:43;;;;;;;;;12.00;11.33;;;;;23.36;58.95;101222.70;110502;1261;18802;-52
2022/06/29 01:51:10;;;;;;;;;11.00;10.67;;;;;23.35;58.84;101225.81;110500;1261;18178;-50
2022/06/29 01:53:37;;;;;;;;;14.67;14.00;;;;;23.35;58.88;101225.30;110467;1261;21954;-50
2022/06/29 01:56:06;;;;;;;;;16.00;12.00;;;;;23.35;58.86;101225.40;110489;1262;18876;-53
2022/06/29 01:58:33;;;;;;;;;14.00;12.00;;;;;23.32;58.89;101226.48;110481;1262;18259;-48
2022/06/29 02:01:01;;;;;;;;;15.67;14.00;;;;;23.27;58.89;101221.27;110466;1261;18799;-50
2022/06/29 02:03:28;;;;;;;;;18.33;16.67;;;;;23.27;58.92;101221.52;110418;1262;23168;-50
2022/06/29 02:05:55;;;;;;;;;15.00;14.67;;;;;23.27;58.81;101219.87;110489;1262;18192;-51
2022/06/29 02:08:22;;;;;;;;;15.33;15.33;;;;;23.25;58.96;101217.90;110486;1261;18727;-51
2022/06/29 02:10:50;;;;;;;;;15.33;14.00;;;;;23.28;58.85;101224.34;110507;1261;18929;-54
2022/06/29 02:13:17;;;;;;;;;14.00;14.00;;;;;23.25;58.95;101224.64;110517;1261;18158;-52
2022/06/29 02:15:44;;;;;;;;;15.50;14.00;;;;;23.21;58.92;101227.09;110475;1261;19090;-50
2022/06/29 02:18:11;;;;;;;;;14.00;14.00;;;;;23.23;58.84;101231.86;110493;1262;18681;-50
2022/06/29 02:20:38;;;;;;;;;14.67;13.00;;;;;23.23;58.87;101239.81;110482;1261;19517;-51
2022/06/29 02:23:06;;;;;;;;;11.67;11.67;;;;;23.22;58.87;101243.01;110485;1261;19348;-51
2022/06/29 02:25:33;;;;;;;;;16.00;14.00;;;;;23.21;58.93;101255.15;110525;1261;18741;-50
2022/06/29 02:28:00;;;;;;;;;14.00;14.00;;;;;23.18;58.97;101258.02;110446;1260;18260;-51
2022/06/29 02:36:06;;;;;;;;;18.33;13.67;;;;;23.18;58.91;101248.98;110083;1268;18507;-50
2022/06/29 02:38:33;;;;;;;;;15.00;14.67;;;;;23.18;58.96;101248.75;110109;1268;18710;-51
2022/06/29 02:41:00;;;;;;;;;14.33;13.67;;;;;23.16;58.75;101247.73;110118;1267;21292;-51
2022/06/29 02:43:27;;;;;;;;;14.00;13.33;;;;;23.16;58.91;101236.79;110148;1268;18321;-51
2022/06/29 02:45:54;;;;;;;;;14.00;13.67;;;;;23.17;58.99;101235.75;110124;1268;18969;-50
2022/06/29 02:48:22;;;;;;;;;15.00;14.33;;;;;23.17;58.97;101224.98;110102;1267;22333;-54
2022/06/29 02:50:49;;;;;;;;;15.33;12.67;;;;;23.19;58.94;101227.18;110108;1267;18764;-51
2022/06/29 02:53:16;;;;;;;;;14.67;14.67;;;;;23.17;58.89;101220.68;110038;1268;18979;-52
2022/06/29 02:55:43;;;;;;;;;15.67;14.33;;;;;23.19;58.71;101216.70;110150;1267;18816;-50
2022/06/29 02:58:11;;;;;;;;;15.00;14.00;;;;;23.19;58.77;101215.44;109952;1268;23380;-50
2022/06/29 03:00:38;;;;;;;;;16.67;16.00;;;;;23.13;58.89;101214.83;110113;1267;19069;-50
2022/06/29 03:03:05;;;;;;;;;14.00;12.00;;;;;23.11;58.92;101216.96;110133;1268;18659;-53
2022/06/29 03:05:32;;;;;;;;;17.67;15.33;;;;;23.11;59.15;101214.39;109965;1267;18179;-50
2022/06/29 03:08:00;;;;;;;;;14.50;14.50;;;;;23.12;59.00;101209.02;110075;1267;21542;-52
2022/06/29 03:10:27;;;;;;;;;15.00;14.00;;;;;23.11;59.11;101207.87;110263;1262;18665;-51
2022/06/29 03:12:54;;;;;;;;;15.33;13.67;;;;;23.09;59.08;101202.79;110510;1261;18285;-51
2022/06/29 03:15:25;;;;;;;;;17.33;16.33;;;;;23.07;59.31;101201.38;110467;1262;21835;-51
2022/06/29 03:17:53;;;;;;;;;17.00;15.00;;;;;23.07;59.34;101204.01;110504;1261;18970;-51
2022/06/29 03:20:20;;;;;;;;;15.00;14.00;;;;;23.07;59.33;101206.87;110452;1262;18317;-51
2022/06/29 03:22:47;;;;;;;;;17.67;17.67;;;;;23.06;59.32;101209.88;110525;1261;18957;-51
2022/06/29 03:25:14;;;;;;;;;19.67;16.00;;;;;23.06;59.33;101210.46;110480;1261;18861;-49
2022/06/29 03:27:42;;;;;;;;;24.33;23.00;;;;;23.07;59.36;101210.29;110465;1261;20194;-49
2022/06/29 03:30:09;;;;;;;;;22.33;21.67;;;;;23.09;59.45;101210.61;110441;1262;18547;-50
2022/06/29 03:32:36;;;;;;;;;28.00;25.67;;;;;23.09;59.57;101213.94;110484;1261;18855;-50
2022/06/29 03:35:04;;;;;;;;;28.00;24.50;;;;;23.10;59.48;101213.79;110498;1261;18200;-50
2022/06/29 03:37:32;;;;;;;;;24.00;23.00;;;;;23.12;59.57;101212.67;110494;1261;21631;-51
2022/06/29 03:39:59;;;;;;;;;22.00;22.00;;;;;23.10;59.59;101214.47;110473;1261;18690;-51
2022/06/29 03:42:26;;;;;;;;;22.67;22.00;;;;;23.11;59.45;101205.34;110530;1261;18386;-49
2022/06/29 03:44:55;;;;;;;;;28.33;22.33;;;;;23.13;59.40;101200.69;110485;1261;18668;-49
2022/06/29 03:47:22;;;;;;;;;21.33;19.00;;;;;23.11;59.45;101191.19;110315;1264;18982;-51
2022/06/29 03:49:50;;;;;;;;;21.67;20.00;;;;;23.13;59.58;101188.41;110526;1261;18291;-51
2022/06/29 03:52:17;;;;;;;;;20.33;18.33;;;;;23.19;59.48;101184.34;110498;1261;22123;-50
2022/06/29 03:54:44;;;;;;;;;22.00;21.33;;;;;23.19;59.55;101183.55;110500;1262;18780;-50
2022/06/29 03:57:11;;;;;;;;;18.00;17.00;;;;;23.18;59.59;101186.08;110460;1261;24833;-50
2022/06/29 03:59:39;;;;;;;;;17.50;16.50;;;;;23.16;59.61;101180.45;110487;1262;18834;-49
2022/06/29 04:02:06;;;;;;;;;19.00;16.00;;;;;23.17;59.49;101179.25;110483;1262;19315;-51
2022/06/29 04:04:33;;;;;;;;;16.00;15.00;;;;;23.22;59.53;101178.20;110605;1261;21744;-54
2022/06/29 04:07:00;;;;;;;;;16.00;15.33;;;;;23.24;59.48;101181.35;110715;1261;14294;-49
2022/06/29 04:09:28;;;;;;;;;15.00;14.00;;;;;23.24;59.46;101181.55;110706;1261;18487;-49
2022/06/29 04:11:56;;;;;;;;;16.00;14.00;;;;;23.22;59.53;101187.92;110719;1261;15201;-48
2022/06/29 04:14:23;;;;;;;;;19.00;17.00;;;;;23.20;59.53;101192.43;110671;1261;14275;-48
2022/06/29 04:16:50;;;;;;;;;18.33;17.33;;;;;23.22;59.59;101195.88;110753;1261;13309;-50
2022/06/29 04:19:18;;;;;;;;;24.00;23.00;;;;;23.20;59.68;101185.84;110695;1261;13386;-49
2022/06/29 04:21:45;;;;;;;;;18.00;18.00;;;;;23.21;59.65;101174.10;110703;1262;14696;-51
2022/06/29 04:24:12;;;;;;;;;19.00;17.00;;;;;23.25;59.53;101173.39;110581;1262;14094;-50
2022/06/29 04:26:39;;;;;;;;;17.00;17.00;;;;;23.32;59.33;101172.88;110664;1261;15019;-53
2022/06/29 04:29:07;;;;;;;;;20.00;17.50;;;;;23.47;58.94;101160.55;110654;1262;14853;-51
2022/06/29 04:31:34;;;;;;;;;18.00;15.00;;;;;23.69;58.35;101167.35;110726;1262;13181;-47
2022/06/29 04:34:01;;;;;;;;;16.00;16.00;;;;;23.82;58.00;101175.48;110691;1261;14859;-49
2022/06/29 04:36:28;;;;;;;;;15.00;14.00;;;;;23.82;57.97;101181.27;110640;1262;14974;-51
2022/06/29 04:38:56;;;;;;;;;14.00;14.00;;;;;23.79;58.10;101179.34;110577;1261;13468;-52
2022/06/29 04:41:23;;;;;;;;;15.67;15.00;;;;;23.78;58.05;101177.25;110683;1261;13205;-50
2022/06/29 04:43:50;;;;;;;;;14.00;13.33;;;;;23.77;57.99;101181.05;110635;1261;13275;-50
2022/06/29 04:46:21;;;;;;;;;15.00;14.00;;;;;23.76;57.93;101184.29;110631;1261;15268;-50
2022/06/29 04:48:48;;;;;;;;;12.67;12.67;;;;;23.74;57.82;101185.23;110594;1262;12645;-49
2022/06/29 04:51:16;;;;;;;;;14.33;12.67;;;;;23.73;57.82;101185.86;110602;1262;13188;-50
2022/06/29 04:53:43;;;;;;;;;23.67;20.00;;;;;23.76;57.73;101186.23;110673;1261;13222;-50
2022/06/29 04:56:11;;;;;;;;;20.00;19.00;;;;;23.79;57.55;101190.66;110618;1262;14938;-48
2022/06/29 04:58:38;;;;;;;;;19.00;18.50;;;;;23.81;57.40;101190.73;110713;1262;13176;-51
2022/06/29 05:01:06;;;;;;;;;19.00;18.00;;;;;23.82;57.34;101191.38;110651;1262;14978;-50
2022/06/29 05:03:33;;;;;;;;;18.00;14.67;;;;;23.83;57.29;101186.30;110624;1262;15632;-50
2022/06/29 05:06:00;;;;;;;;;16.00;16.00;;;;;23.85;57.16;101196.15;110627;1261;14934;-50
2022/06/29 05:08:27;;;;;;;;;15.67;15.00;;;;;23.76;57.18;101199.58;110460;1261;13218;-50
2022/06/29 05:10:55;;;;;;;;;16.00;16.00;;;;;23.62;57.47;101191.80;110539;1261;14916;-56
2022/06/29 05:13:22;;;;;;;;;15.33;14.67;;;;;23.53;57.73;101197.81;110562;1261;13586;-49
2022/06/29 05:15:49;;;;;;;;;11.67;11.00;;;;;23.45;57.88;101199.25;110610;1262;13078;-48
2022/06/29 05:18:16;;;;;;;;;18.67;16.00;;;;;23.44;57.96;101206.64;110588;1261;14888;-54
2022/06/29 05:20:44;;;;;;;;;22.00;18.67;;;;;23.50;57.83;101198.07;110496;1262;14989;-48
2022/06/29 05:23:11;;;;;;;;;20.00;18.00;;;;;23.50;57.77;101205.52;110757;1262;16455;-50
2022/06/29 05:25:39;;;;;;;;;19.00;18.00;;;;;23.44;57.89;101213.95;110713;1262;11116;-48
2022/06/29 05:28:06;;;;;;;;;18.00;18.00;;;;;23.38;58.16;101217.98;110673;1262;15910;-48
2022/06/29 05:30:33;;;;;;;;;15.00;15.00;;;;;23.38;58.19;101216.64;110694;1261;14912;-48
2022/06/29 05:33:00;;;;;;;;;19.00;17.00;;;;;23.31;58.45;101213.03;110613;1262;13297;-50
2022/06/29 05:35:29;;;;;;;;;18.33;16.67;;;;;23.40;58.39;101212.83;110642;1262;14657;-50
2022/06/29 05:37:57;;;;;;;;;15.33;15.33;;;;;23.46;58.32;101211.93;110666;1261;14536;-51
2022/06/29 05:40:25;;;;;;;;;16.00;15.00;;;;;23.70;58.04;101205.78;110714;1262;14961;-49
2022/06/29 05:42:53;;;;;;;;;17.33;16.00;;;;;24.01;57.40;101199.89;110639;1262;14483;-50
2022/06/29 05:45:20;;;;;;;;;21.67;19.00;;;;;23.99;57.45;101203.48;110654;1261;14732;-49
2022/06/29 05:47:47;;;;;;;;;18.67;16.67;;;;;23.83;57.87;101203.48;110633;1261;13592;-51
2022/06/29 05:50:14;;;;;;;;;20.00;18.33;;;;;23.77;58.19;101209.34;110658;1261;14105;-50
2022/06/29 05:52:41;;;;;;;;;20.67;19.00;;;;;23.59;58.41;101212.89;110631;1262;13207;-52
2022/06/29 05:55:09;;;;;;;;;19.33;19.00;;;;;23.43;58.88;101210.31;110662;1262;13400;-50
2022/06/29 05:57:36;;;;;;;;;19.00;18.50;;;;;23.46;58.92;101207.00;110692;1261;14689;-51
2022/06/29 06:00:03;;;;;;;;;19.00;16.00;;;;;23.55;58.64;101195.67;110680;1262;14349;-51
2022/06/29 06:02:30;;;;;;;;;18.00;17.00;;;;;23.53;58.65;101193.54;110644;1261;14316;-50
2022/06/29 06:04:58;;;;;;;;;20.00;18.50;;;;;23.56;58.58;101193.88;110691;1261;14243;-52
2022/06/29 06:07:25;;;;;;;;;18.50;17.00;;;;;23.53;58.68;101198.26;110704;1261;13173;-47
2022/06/29 06:09:52;;;;;;;;;22.00;19.00;;;;;23.49;59.01;101203.15;110629;1262;13808;-51
2022/06/29 06:12:19;;;;;;;;;21.67;18.67;;;;;23.53;59.06;101202.30;110718;1262;13816;-50
2022/06/29 06:14:47;;;;;;;;;18.33;18.00;;;;;23.63;59.01;101198.80;110554;1262;14188;-50
2022/06/29 06:17:14;;;;;;;;;19.00;17.33;;;;;23.62;58.72;101205.65;110602;1261;14088;-51
2022/06/29 06:19:41;;;;;;;;;17.00;16.00;;;;;23.68;58.69;101203.45;110634;1262;13106;-50
2022/06/29 06:22:08;;;;;;;;;19.67;19.00;;;;;23.63;58.54;101200.67;110680;1262;14647;-50
2022/06/29 06:24:35;;;;;;;;;18.67;16.00;;;;;23.57;58.69;101198.40;110707;1261;13837;-54
2022/06/29 06:27:03;;;;;;;;;18.00;18.00;;;;;23.77;58.27;101194.71;110702;1261;14375;-49
2022/06/29 06:29:31;;;;;;;;;18.00;18.00;;;;;23.70;58.40;101201.72;110697;1262;14331;-50
2022/06/29 06:31:58;;;;;;;;;18.67;17.67;;;;;23.65;58.49;101199.00;110733;1261;13421;-54
2022/06/29 06:34:26;;;;;;;;;18.33;16.33;;;;;23.71;58.31;101195.93;110634;1261;12917;-53
2022/06/29 06:36:53;;;;;;;;;16.33;16.00;;;;;23.74;58.34;101196.73;110666;1261;14166;-52
2022/06/29 06:39:20;;;;;;;;;21.67;19.67;;;;;23.86;58.06;101197.30;110701;1261;14276;-52
2022/06/29 06:41:47;;;;;;;;;19.00;19.00;;;;;23.45;58.40;101192.34;110698;1262;17129;-52
2022/06/29 06:44:15;;;;;;;;;19.00;18.00;;;;;23.14;59.30;101179.04;110435;1262;18705;-51
2022/06/29 06:46:46;;;;;;;;;16.33;15.00;;;;;22.95;60.12;101171.64;110470;1262;18765;-51
2022/06/29 06:49:14;;;;;;;;;18.00;18.00;;;;;23.14;59.93;101173.08;110459;1261;19418;-50
2022/06/29 06:51:41;;;;;;;;;18.00;17.00;;;;;23.27;59.75;101167.70;110384;1261;22751;-51
2022/06/29 06:54:08;;;;;;;;;16.33;13.33;;;;;23.48;59.34;101170.84;110401;1261;18826;-50
2022/06/29 06:56:35;;;;;;;;;15.33;15.00;;;;;23.53;58.53;101167.85;110472;1261;22434;-50
2022/06/29 06:59:03;;;;;;;;;15.67;14.67;;;;;23.46;57.94;101164.07;110410;1261;18907;-50
2022/06/29 07:01:30;;;;;;;;;17.00;14.00;;;;;23.26;57.71;101162.12;110398;1262;18862;-49
2022/06/29 07:03:58;;;;;;;;;13.33;13.33;;;;;23.41;57.69;101159.19;110237;1262;19403;-48
2022/06/29 07:06:25;;;;;;;;;14.00;11.00;;;;;23.71;56.75;101160.80;110383;1260;18643;-49
2022/06/29 07:08:54;;;;;;;;;13.00;13.00;;;;;23.49;55.90;101160.24;110383;1261;18876;-52
2022/06/29 07:11:21;;;;;;;;;13.33;12.33;;;;;23.17;56.24;101165.83;110413;1262;19485;-50
2022/06/29 07:13:48;;;;;;;;;14.00;14.00;;;;;23.08;56.43;101165.24;110446;1261;18982;-50
2022/06/29 07:16:15;;;;;;;;;21.00;18.00;;;;;23.06;56.84;101163.05;110366;1262;20274;-50
2022/06/29 07:18:43;;;;;;;;;18.00;17.00;;;;;23.20;56.81;101165.89;110314;1262;19648;-49
2022/06/29 07:21:10;;;;;;;;;17.00;15.00;;;;;23.52;56.53;101165.95;110222;1262;20645;-51
2022/06/29 07:23:37;;;;;;;;;12.00;12.00;;;;;23.55;56.29;101164.27;110302;1261;18814;-51
2022/06/29 07:26:05;;;;;;;;;11.00;11.00;;;;;23.20;56.42;101163.79;110442;1261;19442;-47
2022/06/29 07:28:33;;;;;;;;;18.00;17.00;;;;;23.05;56.75;101163.96;110425;1262;18728;-48
2022/06/29 07:31:00;;;;;;;;;13.00;13.00;;;;;23.30;56.43;101166.20;110406;1261;18901;-49
2022/06/29 07:33:27;;;;;;;;;15.67;14.67;;;;;23.33;56.19;101168.08;110344;1261;19530;-52
2022/06/29 07:35:54;;;;;;;;;11.00;11.00;;;;;23.01;56.69;101165.54;110369;1262;18845;-51
2022/06/29 07:38:22;;;;;;;;;14.00;13.00;;;;;23.16;56.78;101164.21;110446;1261;19327;-46
2022/06/29 07:40:49;;;;;;;;;15.00;15.00;;;;;23.36;56.36;101155.98;110473;1262;19532;-49
2022/06/29 07:43:17;;;;;;;;;35.00;32.50;;;;;23.72;55.81;101153.58;110451;1262;18693;-52
2022/06/29 07:45:44;;;;;;;;;19.00;17.00;;;;;24.04;55.48;101149.93;110451;1261;19205;-53
2022/06/29 07:48:12;;;;;;;;;20.67;19.00;;;;;24.26;56.04;101143.80;110441;1261;19743;-51
2022/06/29 07:50:40;;;;;;;;;18.00;16.00;;;;;24.36;55.58;101142.41;110291;1262;18675;-51
2022/06/29 07:53:07;;;;;;;;;15.00;14.33;;;;;24.16;55.59;101145.65;110384;1262;18843;-49
2022/06/29 07:55:34;;;;;;;;;16.00;15.67;;;;;24.05;55.65;101148.94;110465;1261;19438;-51
2022/06/29 07:58:02;;;;;;;;;14.33;12.00;;;;;24.01;55.67;101153.56;110425;1262;18703;-50
2022/06/29 08:00:29;;;;;;;;;16.33;15.00;;;;;23.94;55.82;101150.45;110419;1261;18999;-49
2022/06/29 08:02:56;;;;;;;;;14.00;11.00;;;;;24.03;55.85;101149.84;110440;1262;19489;-48
2022/06/29 08:05:24;;;;;;;;;12.00;12.00;;;;;24.31;55.73;101145.13;110364;1261;20270;-51
2022/06/29 08:07:51;;;;;;;;;14.67;14.00;;;;;24.27;55.58;101146.05;110619;1261;18796;-51
2022/06/29 08:10:19;;;;;;;;;23.00;17.33;;;;;23.95;55.48;101150.27;110391;1262;19486;-50
2022/06/29 08:12:46;;;;;;;;;16.00;13.00;;;;;24.18;55.67;101144.40;110314;1261;18710;-50
2022/06/29 08:15:15;;;;;;;;;15.00;14.33;;;;;24.32;55.38;101143.92;110449;1261;18851;-49
2022/06/29 08:17:42;;;;;;;;;14.00;12.00;;;;;24.62;54.86;101145.48;110426;1261;19586;-50
2022/06/29 08:20:09;;;;;;;;;12.00;11.00;;;;;24.60;55.08;101154.09;110399;1261;18765;-50
2022/06/29 08:22:36;;;;;;;;;15.00;15.00;;;;;24.31;54.95;101154.83;110450;1262;18880;-51
2022/06/29 08:25:04;;;;;;;;;14.00;14.00;;;;;24.23;55.07;101149.95;110415;1262;19528;-50
2022/06/29 08:27:33;;;;;;;;;14.00;14.00;;;;;23.73;55.42;101151.89;110374;1261;18989;-52
2022/06/29 08:30:00;;;;;;;;;16.33;14.00;;;;;23.47;56.20;101149.91;110413;1261;18923;-51
2022/06/29 08:32:27;;;;;;;;;15.00;14.00;;;;;23.68;56.15;101148.50;110363;1261;19822;-50
2022/06/29 08:34:58;;;;;;;;;12.00;11.67;;;;;23.89;56.64;101144.45;110469;1260;22289;-51
2022/06/29 08:37:25;;;;;;;;;16.00;15.00;;;;;24.12;56.13;101141.07;110448;1261;22798;-49
2022/06/29 08:39:52;;;;;;;;;14.00;14.00;;;;;24.33;55.42;101140.22;110408;1261;21954;-50
2022/06/29 08:42:20;;;;;;;;;12.00;12.00;;;;;24.52;54.87;101142.52;110408;1262;19003;-50
2022/06/29 08:44:47;;;;;;;;;16.00;15.33;;;;;24.02;55.28;101136.52;110360;1261;18900;-52
2022/06/29 08:47:14;;;;;;;;;13.67;12.00;;;;;24.08;56.15;101137.25;110377;1261;21967;-51
2022/06/29 08:49:44;;;;;;;;;16.33;15.00;;;;;24.34;55.54;101133.42;110456;1262;18867;-50
2022/06/29 08:52:11;;;;;;;;;12.00;12.00;;;;;24.59;55.39;101132.56;110398;1261;18697;-50
2022/06/29 08:54:38;;;;;;;;;12.00;12.00;;;;;24.80;55.48;101126.17;110402;1261;19665;-51
2022/06/29 08:57:05;;;;;;;;;13.33;13.33;;;;;24.63;55.45;101120.67;110420;1262;23332;-50
2022/06/29 08:59:33;;;;;;;;;12.00;11.50;;;;;24.47;55.25;101124.45;110457;1261;19250;-50
2022/06/29 09:02:00;;;;;;;;;14.00;13.33;;;;;24.40;55.33;101123.22;110447;1261;20038;-55
2022/06/29 09:04:27;;;;;;;;;12.33;10.67;;;;;24.33;55.31;101121.69;110450;1262;22232;-53
2022/06/29 09:06:55;;;;;;;;;14.00;14.00;;;;;24.23;55.40;101119.44;110434;1261;18803;-50
2022/06/29 09:09:22;;;;;;;;;15.33;13.33;;;;;24.38;55.04;101121.42;110406;1261;20279;-51
2022/06/29 09:11:49;;;;;;;;;12.00;12.00;;;;;24.71;54.80;101121.11;110353;1261;18708;-52
2022/06/29 09:14:16;;;;;;;;;14.00;13.00;;;;;25.04;54.18;101119.71;110401;1261;22009;-51
2022/06/29 09:16:44;;;;;;;;;15.33;14.33;;;;;25.19;53.63;101119.72;110474;1262;19600;-49
2022/06/29 09:19:11;;;;;;;;;14.33;12.67;;;;;25.26;53.24;101116.98;110416;1261;18754;-54
2022/06/29 09:21:38;;;;;;;;;14.67;14.00;;;;;25.16;53.25;101120.02;110393;1261;22648;-53
2022/06/29 09:24:05;;;;;;;;;13.00;13.00;;;;;25.07;53.39;101114.49;110352;1261;19494;-53
2022/06/29 09:26:33;;;;;;;;;13.00;12.00;;;;;25.31;53.16;101111.50;110395;1261;22800;-51
2022/06/29 09:29:00;;;;;;;;;12.00;12.00;;;;;25.44;52.78;101110.14;110443;1261;19217;-51
2022/06/29 09:31:27;;;;;;;;;16.67;16.00;;;;;25.26;52.25;101110.08;110406;1262;20230;-51
2022/06/29 09:33:55;;;;;;;;;15.00;13.00;;;;;25.16;52.49;101115.77;110367;1262;22772;-48
2022/06/29 09:36:22;;;;;;;;;12.00;12.00;;;;;25.30;52.04;101113.06;110434;1261;20309;-50
2022/06/29 09:38:49;;;;;;;;;15.33;13.33;;;;;25.23;52.00;101116.29;110430;1262;19393;-52
2022/06/29 09:41:17;;;;;;;;;36.67;32.00;;;;;25.35;52.11;101119.55;110433;1262;19116;-50
2022/06/29 09:43:44;;;;;;;;;40.00;37.00;;;;;25.19;52.29;101118.23;110468;1261;18954;-53
2022/06/29 09:46:11;;;;;;;;;24.67;24.67;;;;;25.26;52.35;101115.73;110343;1261;20161;-51
2022/06/29 09:48:38;;;;;;;;;18.00;17.33;;;;;25.36;52.77;101118.73;110160;1261;18774;-51
2022/06/29 09:51:30;;;;;;;;;17.33;16.33;;;;;25.19;52.78;101119.59;110400;1262;19417;-50
2022/06/29 09:53:53;;;;;;;;;12.33;12.00;;;;;25.17;52.60;101113.92;110305;1261;22784;-51
2022/06/29 09:56:20;;;;;;;;;18.00;17.00;;;;;25.18;52.33;101112.75;110381;1262;18727;-52
2022/06/29 09:58:48;;;;;;;;;13.00;12.67;;;;;25.38;52.37;101103.75;110414;1262;18807;-51
2022/06/29 10:04:00;;;;;;;;;16.00;15.00;;;;;25.63;52.10;101100.14;110412;1261;18754;-54
2022/06/29 10:06:27;;;;;;;;;13.00;12.00;;;;;25.82;52.05;101106.59;110417;1262;18979;-52
2022/06/29 10:08:54;;;;;;;;;16.50;15.50;;;;;25.96;51.73;101107.60;110350;1261;19592;-51
2022/06/29 10:14:07;;;;;;;;;13.67;13.00;;;;;26.10;52.22;101115.80;110369;1262;21942;-52
2022/06/29 10:16:34;;;;;;;;;16.00;15.33;;;;;26.06;52.36;101118.17;110373;1262;19446;-50
2022/06/29 10:19:01;;;;;;;;;15.67;15.67;;;;;26.03;52.59;101121.88;110323;1261;22798;-53
2022/06/29 10:21:28;;;;;;;;;13.67;13.67;;;;;26.21;52.82;101124.60;110250;1261;19094;-53
2022/06/29 10:23:56;;;;;;;;;13.00;12.67;;;;;26.21;52.40;101121.42;110348;1262;19609;-54
2022/06/29 10:26:23;;;;;;;;;15.00;15.00;;;;;25.96;52.19;101119.64;110387;1262;21142;-50
2022/06/29 10:28:50;;;;;;;;;15.67;13.00;;;;;25.90;52.37;101113.98;110375;1260;22770;-51
2022/06/29 10:31:17;;;;;;;;;12.00;11.67;;;;;25.91;51.99;101110.48;110311;1261;19560;-52
2022/06/29 10:33:45;;;;;;;;;13.00;13.00;;;;;25.72;52.13;101108.29;110304;1261;19100;-50
2022/06/29 10:36:13;;;;;;;;;14.00;13.00;;;;;25.57;52.29;101106.56;110353;1262;18830;-51
2022/06/29 10:38:40;;;;;;;;;17.00;15.00;;;;;25.53;52.49;101106.95;110373;1261;19536;-51
2022/06/29 10:41:07;;;;;;;;;13.67;13.00;;;;;25.35;52.42;101100.17;110375;1262;19488;-51
2022/06/29 10:43:35;;;;;;;;;15.33;13.00;;;;;25.36;52.49;101099.16;110441;1261;19220;-54
2022/06/29 10:46:02;;;;;;;;;14.00;14.00;;;;;25.58;52.12;101105.20;110445;1262;19578;-50
2022/06/29 10:48:31;;;;;;;;;14.00;14.00;;;;;25.63;52.38;101096.51;110418;1261;22315;-49
2022/06/29 10:53:46;;;;;;;;;16.00;16.00;;;;;25.79;52.13;101088.70;110460;1262;20814;-51
2022/06/29 10:56:13;;;;;;;;;15.00;15.00;;;;;25.84;52.28;101088.73;110437;1262;19045;-49
2022/06/29 10:58:41;;;;;;;;;12.33;12.33;;;;;25.97;52.11;101082.51;110431;1261;18825;-51
2022/06/29 11:01:08;;;;;;;;;13.00;13.00;;;;;25.92;51.84;101074.48;110364;1261;20518;-52
2022/06/29 11:03:36;;;;;;;;;17.33;14.00;;;;;25.93;51.71;101074.08;110430;1261;18763;-51
2022/06/29 11:17:03;;;;;;;;;13.67;13.67;;;;;25.91;50.38;101053.61;110244;1262;19498;-52
2022/06/29 11:19:31;;;;;;;;;13.33;13.00;;;;;26.03;50.75;101057.35;110119;1261;20923;-49
2022/06/29 11:21:59;;;;;;;;;14.00;13.00;;;;;26.09;51.09;101051.47;110585;1261;18886;-55
2022/06/29 11:24:26;;;;;;;;;14.00;14.00;;;;;26.02;51.37;101057.47;110329;1261;20032;-52
2022/06/29 11:26:54;;;;;;;;;14.67;13.00;;;;;25.98;51.56;101058.73;110309;1261;18940;-54